Aeroporto :
LOGIN :

Iscrizione | Disclaimer

   EN    FR    IT 

 










Sommario :    VFR   VFR Marginale   IFR   IFR Intensivo   IFR Molto Intensivo
Visibilità : 
Base nubi : 
>= 8 km
>= 3000ft
5 / 8 km
1000 / 3000 ft
1500m / 5 km
500 / 1000 ft
800 / 1500m
200 / 500 ft
< 800m
< 200 ft
Simboli :   Temporali  Nebbia  Neve Forte  Precipitazioni Forti  Vento > 20 kt
SIGMETs :   Varie  Temporali  Ghiacco  Turbolenza  Onda orograficha  Ceneri Vulcaniche






- Altitudine del aeroporto : 1906 ft
- Codice IATA : INN


LOWI - Innsbruck

ULTIMO METAR :
  • 160720Z 27010KT 9999 FEW060 SCT100 BKN300 00/M02 Q1015 WS R26 NOSIG

METARs OBSOLETI :
  • 160650Z 27009KT 9999 FEW060 SCT100 BKN300 00/M02 Q1015 WS R26 NOSIG
  • 160620Z 28012KT 9999 FEW065 BKN300 01/M02 Q1015 WS R26 NOSIG
  • 160550Z 28011KT 9999 FEW100 SCT300 01/M02 Q1015 NOSIG
  • 160520Z 28012KT 9999 FEW070 BKN220 00/M02 Q1015 NOSIG
  • 160450Z 27010KT 240V300 9999 FEW070 SCT150 00/M02 Q1015 NOSIG

TAF AMD TAF LOWI
Valido dal 16 a 07 ore il 17 a 06 ore UTC


160700Z 1607/1706 27008KT 9999 FEW060 SCT100 BKN300 TX14/1613Z TN01/1607Z
BECMG 1610/1612 08012G25KT
TEMPO 1610/1619 12020G40KT
BECMG 1617/1619 VRB10G20KT
PROB40
TEMPO 1619/1706 11015G30KT



MetMap, La meteo Aeronautica in un colpo d'occhio ! - Copyright ORBIFLY Dicembre 2007 - Disclaimer

ORBIFLY MET'MAP TEAM :

Programmazione e sviluppo : Alexandra Zaïnal
Concezione : Baudouin d'Aumeries
Aiuto per la programmazione : Marc-Olivier Méhu
Supporto tecnico e logistico : Manuel Goepfert
Aiuto per la traduzione : Arnaldo La Scala

Contatto : metmap@orbifly.com




FONTI E CREDITI :

   NOAA